sensor_id;sensor_type;location;lat;lon;timestamp;P1;durP1;ratioP1;P2;durP2;ratioP2
26486;SDS011;14425;56.136;40.360;2024-01-15T00:02:05;4.88;;;2.45;;
26486;SDS011;14425;56.136;40.360;2024-01-15T00:04:35;6.07;;;2.35;;
26486;SDS011;14425;56.136;40.360;2024-01-15T00:07:01;10.75;;;3.90;;
26486;SDS011;14425;56.136;40.360;2024-01-15T00:09:26;5.25;;;2.85;;
26486;SDS011;14425;56.136;40.360;2024-01-15T00:11:52;7.75;;;3.60;;
26486;SDS011;14425;56.136;40.360;2024-01-15T00:14:18;5.07;;;3.33;;
26486;SDS011;14425;56.136;40.360;2024-01-15T00:16:45;5.65;;;3.22;;
26486;SDS011;14425;56.136;40.360;2024-01-15T00:19:11;8.15;;;3.92;;
26486;SDS011;14425;56.136;40.360;2024-01-15T00:21:36;7.97;;;3.22;;
26486;SDS011;14425;56.136;40.360;2024-01-15T00:24:01;6.13;;;3.25;;
26486;SDS011;14425;56.136;40.360;2024-01-15T00:26:27;7.57;;;4.35;;
26486;SDS011;14425;56.136;40.360;2024-01-15T00:28:52;5.80;;;3.05;;
26486;SDS011;14425;56.136;40.360;2024-01-15T00:31:17;9.82;;;3.28;;
26486;SDS011;14425;56.136;40.360;2024-01-15T00:33:43;7.80;;;3.17;;
26486;SDS011;14425;56.136;40.360;2024-01-15T00:36:08;7.15;;;2.95;;
26486;SDS011;14425;56.136;40.360;2024-01-15T00:38:34;7.22;;;4.05;;
26486;SDS011;14425;56.136;40.360;2024-01-15T00:40:59;4.80;;;2.30;;
26486;SDS011;14425;56.136;40.360;2024-01-15T00:43:24;4.53;;;2.20;;
26486;SDS011;14425;56.136;40.360;2024-01-15T00:45:50;7.10;;;3.70;;
26486;SDS011;14425;56.136;40.360;2024-01-15T00:48:15;3.67;;;1.73;;
26486;SDS011;14425;56.136;40.360;2024-01-15T00:50:40;7.00;;;3.30;;
26486;SDS011;14425;56.136;40.360;2024-01-15T00:53:06;8.20;;;4.28;;
26486;SDS011;14425;56.136;40.360;2024-01-15T00:55:31;7.32;;;2.85;;
26486;SDS011;14425;56.136;40.360;2024-01-15T00:57:57;7.88;;;3.63;;
26486;SDS011;14425;56.136;40.360;2024-01-15T01:00:22;6.97;;;3.25;;
26486;SDS011;14425;56.136;40.360;2024-01-15T01:02:48;8.07;;;3.97;;
26486;SDS011;14425;56.136;40.360;2024-01-15T01:05:13;3.38;;;2.33;;
26486;SDS011;14425;56.136;40.360;2024-01-15T01:07:38;12.55;;;4.50;;
26486;SDS011;14425;56.136;40.360;2024-01-15T01:10:04;7.60;;;3.10;;
26486;SDS011;14425;56.136;40.360;2024-01-15T01:12:29;6.63;;;2.92;;
26486;SDS011;14425;56.136;40.360;2024-01-15T01:14:55;10.15;;;3.53;;
26486;SDS011;14425;56.136;40.360;2024-01-15T01:17:21;6.18;;;3.60;;
26486;SDS011;14425;56.136;40.360;2024-01-15T01:19:46;7.03;;;3.72;;
26486;SDS011;14425;56.136;40.360;2024-01-15T01:22:11;7.68;;;3.55;;
26486;SDS011;14425;56.136;40.360;2024-01-15T01:24:37;6.63;;;3.25;;
26486;SDS011;14425;56.136;40.360;2024-01-15T01:27:02;8.88;;;4.28;;
26486;SDS011;14425;56.136;40.360;2024-01-15T01:29:28;6.50;;;2.95;;
26486;SDS011;14425;56.136;40.360;2024-01-15T01:31:53;7.10;;;3.45;;
26486;SDS011;14425;56.136;40.360;2024-01-15T01:34:18;5.40;;;2.80;;
26486;SDS011;14425;56.136;40.360;2024-01-15T01:36:45;9.13;;;3.63;;
26486;SDS011;14425;56.136;40.360;2024-01-15T01:39:10;5.93;;;3.45;;
26486;SDS011;14425;56.136;40.360;2024-01-15T01:41:36;7.22;;;3.70;;
26486;SDS011;14425;56.136;40.360;2024-01-15T01:44:01;7.95;;;2.50;;
26486;SDS011;14425;56.136;40.360;2024-01-15T01:46:27;7.95;;;4.22;;
26486;SDS011;14425;56.136;40.360;2024-01-15T01:48:53;5.18;;;2.72;;
26486;SDS011;14425;56.136;40.360;2024-01-15T01:51:19;4.47;;;2.70;;
26486;SDS011;14425;56.136;40.360;2024-01-15T01:53:45;6.57;;;2.75;;
26486;SDS011;14425;56.136;40.360;2024-01-15T01:56:10;7.55;;;2.90;;
26486;SDS011;14425;56.136;40.360;2024-01-15T01:58:37;7.38;;;3.38;;
26486;SDS011;14425;56.136;40.360;2024-01-15T02:01:02;5.40;;;2.47;;
26486;SDS011;14425;56.136;40.360;2024-01-15T02:03:27;4.85;;;2.90;;
26486;SDS011;14425;56.136;40.360;2024-01-15T02:05:53;6.40;;;3.10;;
26486;SDS011;14425;56.136;40.360;2024-01-15T02:08:18;7.88;;;3.75;;
26486;SDS011;14425;56.136;40.360;2024-01-15T02:10:44;4.03;;;2.60;;
26486;SDS011;14425;56.136;40.360;2024-01-15T02:13:09;6.85;;;3.42;;
26486;SDS011;14425;56.136;40.360;2024-01-15T02:15:35;4.78;;;3.47;;
26486;SDS011;14425;56.136;40.360;2024-01-15T02:18:01;6.03;;;3.00;;
26486;SDS011;14425;56.136;40.360;2024-01-15T02:20:28;5.13;;;2.78;;
26486;SDS011;14425;56.136;40.360;2024-01-15T02:22:53;5.07;;;3.60;;
26486;SDS011;14425;56.136;40.360;2024-01-15T02:25:19;5.18;;;2.67;;
26486;SDS011;14425;56.136;40.360;2024-01-15T02:27:45;8.38;;;4.30;;
26486;SDS011;14425;56.136;40.360;2024-01-15T02:30:11;5.18;;;3.33;;
26486;SDS011;14425;56.136;40.360;2024-01-15T02:32:37;5.25;;;3.67;;
26486;SDS011;14425;56.136;40.360;2024-01-15T02:35:03;8.25;;;3.33;;
26486;SDS011;14425;56.136;40.360;2024-01-15T02:37:29;9.23;;;4.30;;
26486;SDS011;14425;56.136;40.360;2024-01-15T02:39:54;6.63;;;3.10;;
26486;SDS011;14425;56.136;40.360;2024-01-15T02:42:20;2.13;;;1.35;;
26486;SDS011;14425;56.136;40.360;2024-01-15T02:44:45;6.47;;;3.83;;
26486;SDS011;14425;56.136;40.360;2024-01-15T02:47:10;6.75;;;3.45;;
26486;SDS011;14425;56.136;40.360;2024-01-15T02:49:36;8.68;;;4.40;;
26486;SDS011;14425;56.136;40.360;2024-01-15T02:52:01;5.93;;;3.10;;
26486;SDS011;14425;56.136;40.360;2024-01-15T02:54:26;5.70;;;3.80;;
26486;SDS011;14425;56.136;40.360;2024-01-15T02:56:52;7.38;;;2.58;;
26486;SDS011;14425;56.136;40.360;2024-01-15T02:59:17;7.30;;;3.47;;
26486;SDS011;14425;56.136;40.360;2024-01-15T03:01:42;8.57;;;3.40;;
26486;SDS011;14425;56.136;40.360;2024-01-15T03:04:08;5.82;;;2.78;;
26486;SDS011;14425;56.136;40.360;2024-01-15T03:06:33;8.68;;;3.35;;
26486;SDS011;14425;56.136;40.360;2024-01-15T03:08:59;4.45;;;2.05;;
26486;SDS011;14425;56.136;40.360;2024-01-15T03:11:24;12.80;;;4.95;;
26486;SDS011;14425;56.136;40.360;2024-01-15T03:13:49;4.97;;;2.38;;
26486;SDS011;14425;56.136;40.360;2024-01-15T03:16:15;8.07;;;4.18;;
26486;SDS011;14425;56.136;40.360;2024-01-15T03:18:40;5.80;;;3.63;;
26486;SDS011;14425;56.136;40.360;2024-01-15T03:21:05;6.32;;;3.20;;
26486;SDS011;14425;56.136;40.360;2024-01-15T03:23:31;5.47;;;3.05;;
26486;SDS011;14425;56.136;40.360;2024-01-15T03:25:56;6.68;;;3.13;;
26486;SDS011;14425;56.136;40.360;2024-01-15T03:28:22;6.43;;;3.20;;
26486;SDS011;14425;56.136;40.360;2024-01-15T03:30:47;6.13;;;2.83;;
26486;SDS011;14425;56.136;40.360;2024-01-15T03:33:12;6.18;;;3.50;;
26486;SDS011;14425;56.136;40.360;2024-01-15T03:35:38;6.93;;;3.17;;
26486;SDS011;14425;56.136;40.360;2024-01-15T03:38:03;6.88;;;2.70;;
26486;SDS011;14425;56.136;40.360;2024-01-15T03:40:28;6.68;;;3.05;;
26486;SDS011;14425;56.136;40.360;2024-01-15T03:42:54;6.95;;;3.55;;
26486;SDS011;14425;56.136;40.360;2024-01-15T03:45:19;8.07;;;4.18;;
26486;SDS011;14425;56.136;40.360;2024-01-15T03:47:45;5.32;;;2.72;;
26486;SDS011;14425;56.136;40.360;2024-01-15T03:50:10;8.30;;;4.50;;
26486;SDS011;14425;56.136;40.360;2024-01-15T03:52:35;5.55;;;3.63;;
26486;SDS011;14425;56.136;40.360;2024-01-15T03:55:01;6.43;;;2.88;;
26486;SDS011;14425;56.136;40.360;2024-01-15T03:57:26;9.32;;;4.03;;
26486;SDS011;14425;56.136;40.360;2024-01-15T03:59:52;5.60;;;3.22;;
26486;SDS011;14425;56.136;40.360;2024-01-15T04:02:17;6.53;;;2.90;;
26486;SDS011;14425;56.136;40.360;2024-01-15T04:04:43;8.48;;;3.97;;
26486;SDS011;14425;56.136;40.360;2024-01-15T04:07:09;6.05;;;2.75;;
26486;SDS011;14425;56.136;40.360;2024-01-15T04:09:34;4.57;;;2.78;;
26486;SDS011;14425;56.136;40.360;2024-01-15T04:11:59;10.23;;;4.28;;
26486;SDS011;14425;56.136;40.360;2024-01-15T04:14:25;7.15;;;3.47;;
26486;SDS011;14425;56.136;40.360;2024-01-15T04:16:50;9.68;;;3.70;;
26486;SDS011;14425;56.136;40.360;2024-01-15T04:19:15;5.00;;;2.80;;
26486;SDS011;14425;56.136;40.360;2024-01-15T04:21:41;5.40;;;2.97;;
26486;SDS011;14425;56.136;40.360;2024-01-15T04:24:06;8.65;;;3.75;;
26486;SDS011;14425;56.136;40.360;2024-01-15T04:26:32;6.07;;;1.77;;
26486;SDS011;14425;56.136;40.360;2024-01-15T04:28:57;6.20;;;3.63;;
26486;SDS011;14425;56.136;40.360;2024-01-15T04:31:24;11.20;;;4.03;;
26486;SDS011;14425;56.136;40.360;2024-01-15T04:33:50;6.82;;;3.42;;
26486;SDS011;14425;56.136;40.360;2024-01-15T04:36:15;7.70;;;4.18;;
26486;SDS011;14425;56.136;40.360;2024-01-15T04:38:41;5.07;;;2.70;;
26486;SDS011;14425;56.136;40.360;2024-01-15T04:41:09;8.55;;;3.42;;
26486;SDS011;14425;56.136;40.360;2024-01-15T04:43:34;6.38;;;3.30;;
26486;SDS011;14425;56.136;40.360;2024-01-15T04:46:00;6.03;;;3.30;;
26486;SDS011;14425;56.136;40.360;2024-01-15T04:48:25;4.70;;;2.95;;
26486;SDS011;14425;56.136;40.360;2024-01-15T04:50:51;10.93;;;5.80;;
26486;SDS011;14425;56.136;40.360;2024-01-15T04:53:16;8.27;;;3.22;;
26486;SDS011;14425;56.136;40.360;2024-01-15T04:55:41;6.38;;;3.17;;
26486;SDS011;14425;56.136;40.360;2024-01-15T04:58:07;6.85;;;2.70;;
26486;SDS011;14425;56.136;40.360;2024-01-15T05:00:32;7.97;;;5.03;;
26486;SDS011;14425;56.136;40.360;2024-01-15T05:02:57;6.82;;;3.63;;
26486;SDS011;14425;56.136;40.360;2024-01-15T05:05:23;7.60;;;3.40;;
26486;SDS011;14425;56.136;40.360;2024-01-15T05:07:48;4.90;;;3.30;;
26486;SDS011;14425;56.136;40.360;2024-01-15T05:10:13;6.80;;;3.55;;
26486;SDS011;14425;56.136;40.360;2024-01-15T05:12:39;9.25;;;4.65;;
26486;SDS011;14425;56.136;40.360;2024-01-15T05:15:04;8.15;;;4.30;;
26486;SDS011;14425;56.136;40.360;2024-01-15T05:17:30;5.28;;;2.53;;
26486;SDS011;14425;56.136;40.360;2024-01-15T05:19:56;5.80;;;2.97;;
26486;SDS011;14425;56.136;40.360;2024-01-15T05:22:21;5.63;;;3.20;;
26486;SDS011;14425;56.136;40.360;2024-01-15T05:24:46;7.43;;;4.55;;
26486;SDS011;14425;56.136;40.360;2024-01-15T05:27:12;7.20;;;4.00;;
26486;SDS011;14425;56.136;40.360;2024-01-15T05:29:37;8.55;;;4.35;;
26486;SDS011;14425;56.136;40.360;2024-01-15T05:32:03;8.68;;;4.20;;
26486;SDS011;14425;56.136;40.360;2024-01-15T05:34:28;11.10;;;4.85;;
26486;SDS011;14425;56.136;40.360;2024-01-15T05:36:54;5.63;;;2.72;;
26486;SDS011;14425;56.136;40.360;2024-01-15T05:39:19;8.98;;;4.70;;
26486;SDS011;14425;56.136;40.360;2024-01-15T05:41:44;6.63;;;3.55;;
26486;SDS011;14425;56.136;40.360;2024-01-15T05:44:10;8.70;;;4.38;;
26486;SDS011;14425;56.136;40.360;2024-01-15T05:46:35;7.30;;;4.22;;
26486;SDS011;14425;56.136;40.360;2024-01-15T05:49:01;10.55;;;4.22;;
26486;SDS011;14425;56.136;40.360;2024-01-15T05:51:26;7.97;;;4.82;;
26486;SDS011;14425;56.136;40.360;2024-01-15T05:53:51;7.78;;;4.22;;
26486;SDS011;14425;56.136;40.360;2024-01-15T05:56:17;8.38;;;4.25;;
26486;SDS011;14425;56.136;40.360;2024-01-15T05:58:42;7.32;;;4.13;;
26486;SDS011;14425;56.136;40.360;2024-01-15T06:01:08;11.18;;;5.63;;
26486;SDS011;14425;56.136;40.360;2024-01-15T06:03:33;5.45;;;3.42;;
26486;SDS011;14425;56.136;40.360;2024-01-15T06:05:59;10.48;;;3.75;;
26486;SDS011;14425;56.136;40.360;2024-01-15T06:08:25;9.10;;;5.18;;
26486;SDS011;14425;56.136;40.360;2024-01-15T06:10:53;7.07;;;3.42;;
26486;SDS011;14425;56.136;40.360;2024-01-15T06:13:18;7.72;;;4.32;;
26486;SDS011;14425;56.136;40.360;2024-01-15T06:15:43;7.88;;;3.85;;
26486;SDS011;14425;56.136;40.360;2024-01-15T06:18:09;11.02;;;4.93;;
26486;SDS011;14425;56.136;40.360;2024-01-15T06:20:34;7.07;;;3.17;;
26486;SDS011;14425;56.136;40.360;2024-01-15T06:23:00;5.53;;;3.80;;
26486;SDS011;14425;56.136;40.360;2024-01-15T06:25:25;9.45;;;4.22;;
26486;SDS011;14425;56.136;40.360;2024-01-15T06:27:50;9.25;;;4.13;;
26486;SDS011;14425;56.136;40.360;2024-01-15T06:30:16;10.18;;;5.10;;
26486;SDS011;14425;56.136;40.360;2024-01-15T06:32:41;6.90;;;3.67;;
26486;SDS011;14425;56.136;40.360;2024-01-15T06:35:07;9.02;;;4.38;;
26486;SDS011;14425;56.136;40.360;2024-01-15T06:37:33;5.78;;;3.40;;
26486;SDS011;14425;56.136;40.360;2024-01-15T06:39:58;11.82;;;5.20;;
26486;SDS011;14425;56.136;40.360;2024-01-15T06:42:24;8.15;;;4.82;;
26486;SDS011;14425;56.136;40.360;2024-01-15T06:44:49;9.38;;;4.57;;
26486;SDS011;14425;56.136;40.360;2024-01-15T06:47:15;8.25;;;4.28;;
26486;SDS011;14425;56.136;40.360;2024-01-15T06:49:42;8.68;;;3.50;;
26486;SDS011;14425;56.136;40.360;2024-01-15T06:52:08;9.20;;;4.90;;
26486;SDS011;14425;56.136;40.360;2024-01-15T06:54:33;8.60;;;4.97;;
26486;SDS011;14425;56.136;40.360;2024-01-15T06:56:58;8.82;;;4.22;;
26486;SDS011;14425;56.136;40.360;2024-01-15T06:59:24;17.05;;;7.00;;
26486;SDS011;14425;56.136;40.360;2024-01-15T07:01:49;12.15;;;5.82;;
26486;SDS011;14425;56.136;40.360;2024-01-15T07:04:15;9.43;;;5.47;;
26486;SDS011;14425;56.136;40.360;2024-01-15T07:06:40;12.88;;;6.25;;
26486;SDS011;14425;56.136;40.360;2024-01-15T07:09:06;9.93;;;5.43;;
26486;SDS011;14425;56.136;40.360;2024-01-15T07:11:32;7.60;;;3.72;;
26486;SDS011;14425;56.136;40.360;2024-01-15T07:13:58;10.65;;;5.35;;
26486;SDS011;14425;56.136;40.360;2024-01-15T07:16:23;8.95;;;4.45;;
26486;SDS011;14425;56.136;40.360;2024-01-15T07:18:49;9.65;;;5.07;;
26486;SDS011;14425;56.136;40.360;2024-01-15T07:21:14;7.13;;;4.50;;
26486;SDS011;14425;56.136;40.360;2024-01-15T07:23:39;6.32;;;3.58;;
26486;SDS011;14425;56.136;40.360;2024-01-15T07:26:05;10.20;;;4.47;;
26486;SDS011;14425;56.136;40.360;2024-01-15T07:28:30;8.20;;;5.10;;
26486;SDS011;14425;56.136;40.360;2024-01-15T07:30:56;13.23;;;6.07;;
26486;SDS011;14425;56.136;40.360;2024-01-15T07:33:21;7.85;;;4.10;;
26486;SDS011;14425;56.136;40.360;2024-01-15T07:35:47;8.65;;;4.45;;
26486;SDS011;14425;56.136;40.360;2024-01-15T07:38:12;7.75;;;4.03;;
26486;SDS011;14425;56.136;40.360;2024-01-15T07:40:38;9.80;;;5.57;;
26486;SDS011;14425;56.136;40.360;2024-01-15T07:43:03;7.00;;;4.38;;
26486;SDS011;14425;56.136;40.360;2024-01-15T07:45:29;11.40;;;5.32;;
26486;SDS011;14425;56.136;40.360;2024-01-15T07:47:54;10.55;;;4.88;;
26486;SDS011;14425;56.136;40.360;2024-01-15T07:50:20;15.20;;;6.22;;
26486;SDS011;14425;56.136;40.360;2024-01-15T07:52:45;11.55;;;5.32;;
26486;SDS011;14425;56.136;40.360;2024-01-15T07:55:10;8.95;;;4.72;;
26486;SDS011;14425;56.136;40.360;2024-01-15T07:57:36;11.85;;;5.03;;
26486;SDS011;14425;56.136;40.360;2024-01-15T08:00:02;9.23;;;5.93;;
26486;SDS011;14425;56.136;40.360;2024-01-15T08:02:30;11.05;;;5.38;;
26486;SDS011;14425;56.136;40.360;2024-01-15T08:04:56;7.90;;;4.60;;
26486;SDS011;14425;56.136;40.360;2024-01-15T08:07:21;10.95;;;5.57;;
26486;SDS011;14425;56.136;40.360;2024-01-15T08:09:47;10.88;;;5.43;;
26486;SDS011;14425;56.136;40.360;2024-01-15T08:12:14;9.10;;;4.50;;
26486;SDS011;14425;56.136;40.360;2024-01-15T08:14:39;13.85;;;4.32;;
26486;SDS011;14425;56.136;40.360;2024-01-15T08:17:05;9.85;;;5.15;;
26486;SDS011;14425;56.136;40.360;2024-01-15T08:19:30;10.05;;;5.45;;
26486;SDS011;14425;56.136;40.360;2024-01-15T08:21:56;8.32;;;4.00;;
26486;SDS011;14425;56.136;40.360;2024-01-15T08:24:21;9.43;;;5.95;;
26486;SDS011;14425;56.136;40.360;2024-01-15T08:26:47;10.43;;;5.00;;
26486;SDS011;14425;56.136;40.360;2024-01-15T08:29:13;10.57;;;5.35;;
26486;SDS011;14425;56.136;40.360;2024-01-15T08:31:38;11.02;;;5.03;;
26486;SDS011;14425;56.136;40.360;2024-01-15T08:34:03;9.13;;;5.07;;
26486;SDS011;14425;56.136;40.360;2024-01-15T08:36:30;8.43;;;4.38;;
26486;SDS011;14425;56.136;40.360;2024-01-15T08:38:56;12.23;;;4.40;;
26486;SDS011;14425;56.136;40.360;2024-01-15T08:41:21;9.18;;;5.40;;
26486;SDS011;14425;56.136;40.360;2024-01-15T08:43:46;11.30;;;5.15;;
26486;SDS011;14425;56.136;40.360;2024-01-15T08:46:12;13.32;;;5.28;;
26486;SDS011;14425;56.136;40.360;2024-01-15T08:48:37;11.27;;;7.15;;
26486;SDS011;14425;56.136;40.360;2024-01-15T08:51:03;9.90;;;6.28;;
26486;SDS011;14425;56.136;40.360;2024-01-15T08:53:28;9.18;;;4.95;;
26486;SDS011;14425;56.136;40.360;2024-01-15T08:55:53;12.70;;;5.68;;
26486;SDS011;14425;56.136;40.360;2024-01-15T08:58:19;13.43;;;6.18;;
26486;SDS011;14425;56.136;40.360;2024-01-15T09:00:44;6.93;;;4.30;;
26486;SDS011;14425;56.136;40.360;2024-01-15T09:03:10;6.75;;;4.30;;
26486;SDS011;14425;56.136;40.360;2024-01-15T09:05:35;9.27;;;4.93;;
26486;SDS011;14425;56.136;40.360;2024-01-15T09:08:01;10.90;;;6.65;;
26486;SDS011;14425;56.136;40.360;2024-01-15T09:10:26;11.48;;;5.97;;
26486;SDS011;14425;56.136;40.360;2024-01-15T09:12:52;11.60;;;5.43;;
26486;SDS011;14425;56.136;40.360;2024-01-15T09:15:17;12.80;;;6.07;;
26486;SDS011;14425;56.136;40.360;2024-01-15T09:17:43;11.88;;;6.88;;
26486;SDS011;14425;56.136;40.360;2024-01-15T09:20:09;12.60;;;4.65;;
26486;SDS011;14425;56.136;40.360;2024-01-15T09:22:35;10.90;;;5.90;;
26486;SDS011;14425;56.136;40.360;2024-01-15T09:25:00;9.90;;;5.45;;
26486;SDS011;14425;56.136;40.360;2024-01-15T09:27:26;13.27;;;6.20;;
26486;SDS011;14425;56.136;40.360;2024-01-15T09:29:52;6.93;;;4.45;;
26486;SDS011;14425;56.136;40.360;2024-01-15T09:32:17;9.10;;;4.55;;
26486;SDS011;14425;56.136;40.360;2024-01-15T09:34:43;12.43;;;5.82;;
26486;SDS011;14425;56.136;40.360;2024-01-15T09:37:09;10.82;;;6.40;;
26486;SDS011;14425;56.136;40.360;2024-01-15T09:39:34;12.80;;;5.90;;
26486;SDS011;14425;56.136;40.360;2024-01-15T09:42:00;11.23;;;6.30;;
26486;SDS011;14425;56.136;40.360;2024-01-15T09:44:26;18.55;;;6.88;;
26486;SDS011;14425;56.136;40.360;2024-01-15T09:46:52;11.82;;;5.75;;
26486;SDS011;14425;56.136;40.360;2024-01-15T09:49:17;10.00;;;4.93;;
26486;SDS011;14425;56.136;40.360;2024-01-15T09:51:42;9.52;;;6.07;;
26486;SDS011;14425;56.136;40.360;2024-01-15T09:54:08;12.98;;;7.63;;
26486;SDS011;14425;56.136;40.360;2024-01-15T09:56:34;10.85;;;5.82;;
26486;SDS011;14425;56.136;40.360;2024-01-15T09:59:00;12.07;;;6.50;;
26486;SDS011;14425;56.136;40.360;2024-01-15T10:01:26;12.90;;;6.75;;
26486;SDS011;14425;56.136;40.360;2024-01-15T10:03:51;9.40;;;5.15;;
26486;SDS011;14425;56.136;40.360;2024-01-15T10:06:18;10.82;;;4.32;;
26486;SDS011;14425;56.136;40.360;2024-01-15T10:08:47;14.85;;;6.68;;
26486;SDS011;14425;56.136;40.360;2024-01-15T10:11:13;10.90;;;4.85;;
26486;SDS011;14425;56.136;40.360;2024-01-15T10:13:38;12.15;;;5.57;;
26486;SDS011;14425;56.136;40.360;2024-01-15T10:16:04;11.07;;;5.10;;
26486;SDS011;14425;56.136;40.360;2024-01-15T10:18:30;9.57;;;4.35;;
26486;SDS011;14425;56.136;40.360;2024-01-15T10:20:55;12.45;;;4.90;;
26486;SDS011;14425;56.136;40.360;2024-01-15T10:23:23;12.00;;;6.43;;
26486;SDS011;14425;56.136;40.360;2024-01-15T10:25:48;13.43;;;5.72;;
26486;SDS011;14425;56.136;40.360;2024-01-15T10:28:14;9.15;;;5.57;;
26486;SDS011;14425;56.136;40.360;2024-01-15T10:30:39;13.65;;;5.68;;
26486;SDS011;14425;56.136;40.360;2024-01-15T10:33:05;10.75;;;5.57;;
26486;SDS011;14425;56.136;40.360;2024-01-15T10:35:31;10.50;;;4.80;;
26486;SDS011;14425;56.136;40.360;2024-01-15T10:37:58;17.35;;;7.00;;
26486;SDS011;14425;56.136;40.360;2024-01-15T10:40:23;15.50;;;6.20;;
26486;SDS011;14425;56.136;40.360;2024-01-15T10:42:49;13.18;;;4.28;;
26486;SDS011;14425;56.136;40.360;2024-01-15T10:45:14;14.55;;;6.28;;
26486;SDS011;14425;56.136;40.360;2024-01-15T10:47:42;14.23;;;6.13;;
26486;SDS011;14425;56.136;40.360;2024-01-15T10:50:08;10.48;;;4.65;;
26486;SDS011;14425;56.136;40.360;2024-01-15T10:52:34;14.10;;;6.13;;
26486;SDS011;14425;56.136;40.360;2024-01-15T10:55:00;14.02;;;6.70;;
26486;SDS011;14425;56.136;40.360;2024-01-15T10:57:26;11.82;;;6.53;;
26486;SDS011;14425;56.136;40.360;2024-01-15T10:59:52;11.80;;;6.30;;
26486;SDS011;14425;56.136;40.360;2024-01-15T11:02:18;10.18;;;5.28;;
26486;SDS011;14425;56.136;40.360;2024-01-15T11:04:43;10.32;;;6.05;;
26486;SDS011;14425;56.136;40.360;2024-01-15T11:07:08;11.75;;;6.85;;
26486;SDS011;14425;56.136;40.360;2024-01-15T11:09:36;10.30;;;5.28;;
26486;SDS011;14425;56.136;40.360;2024-01-15T11:14:34;11.15;;;5.15;;
26486;SDS011;14425;56.136;40.360;2024-01-15T11:17:00;16.98;;;7.32;;
26486;SDS011;14425;56.136;40.360;2024-01-15T11:19:25;12.13;;;7.13;;
26486;SDS011;14425;56.136;40.360;2024-01-15T11:21:51;9.70;;;4.90;;
26486;SDS011;14425;56.136;40.360;2024-01-15T11:24:36;13.45;;;6.47;;
26486;SDS011;14425;56.136;40.360;2024-01-15T11:27:01;9.80;;;6.50;;
26486;SDS011;14425;56.136;40.360;2024-01-15T11:31:59;13.90;;;5.72;;
26486;SDS011;14425;56.136;40.360;2024-01-15T11:37:09;14.18;;;9.57;;
26486;SDS011;14425;56.136;40.360;2024-01-15T11:39:44;14.07;;;8.55;;
26486;SDS011;14425;56.136;40.360;2024-01-15T11:42:10;13.70;;;7.97;;
26486;SDS011;14425;56.136;40.360;2024-01-15T11:44:36;15.20;;;8.80;;
26486;SDS011;14425;56.136;40.360;2024-01-15T11:47:11;12.13;;;5.90;;
26486;SDS011;14425;56.136;40.360;2024-01-15T11:52:23;15.27;;;6.95;;
26486;SDS011;14425;56.136;40.360;2024-01-15T11:54:49;8.38;;;4.88;;
26486;SDS011;14425;56.136;40.360;2024-01-15T11:57:21;12.90;;;6.87;;
26486;SDS011;14425;56.136;40.360;2024-01-15T11:59:49;12.70;;;5.13;;
26486;SDS011;14425;56.136;40.360;2024-01-15T12:02:14;12.25;;;5.88;;
26486;SDS011;14425;56.136;40.360;2024-01-15T12:04:40;11.90;;;5.10;;
26486;SDS011;14425;56.136;40.360;2024-01-15T12:07:05;12.98;;;7.10;;
26486;SDS011;14425;56.136;40.360;2024-01-15T12:09:30;11.20;;;6.15;;
26486;SDS011;14425;56.136;40.360;2024-01-15T12:12:03;17.00;;;9.00;;
26486;SDS011;14425;56.136;40.360;2024-01-15T12:14:32;13.38;;;6.70;;
26486;SDS011;14425;56.136;40.360;2024-01-15T12:16:59;13.75;;;7.10;;
26486;SDS011;14425;56.136;40.360;2024-01-15T12:19:25;16.45;;;7.85;;
26486;SDS011;14425;56.136;40.360;2024-01-15T12:21:51;16.13;;;7.53;;
26486;SDS011;14425;56.136;40.360;2024-01-15T12:24:16;14.30;;;6.93;;
26486;SDS011;14425;56.136;40.360;2024-01-15T12:26:42;15.00;;;7.10;;
26486;SDS011;14425;56.136;40.360;2024-01-15T12:29:07;18.85;;;9.25;;
26486;SDS011;14425;56.136;40.360;2024-01-15T12:31:33;13.10;;;7.22;;
26486;SDS011;14425;56.136;40.360;2024-01-15T12:33:58;7.72;;;5.28;;
26486;SDS011;14425;56.136;40.360;2024-01-15T12:36:23;13.80;;;7.55;;
26486;SDS011;14425;56.136;40.360;2024-01-15T12:38:49;14.48;;;6.75;;
26486;SDS011;14425;56.136;40.360;2024-01-15T12:41:14;10.57;;;5.47;;
26486;SDS011;14425;56.136;40.360;2024-01-15T12:43:40;14.35;;;7.30;;
26486;SDS011;14425;56.136;40.360;2024-01-15T12:46:05;13.90;;;9.50;;
26486;SDS011;14425;56.136;40.360;2024-01-15T12:48:31;15.45;;;7.20;;
26486;SDS011;14425;56.136;40.360;2024-01-15T12:50:56;13.82;;;6.57;;
26486;SDS011;14425;56.136;40.360;2024-01-15T12:53:22;12.50;;;6.70;;
26486;SDS011;14425;56.136;40.360;2024-01-15T12:55:47;15.38;;;6.55;;
26486;SDS011;14425;56.136;40.360;2024-01-15T12:58:13;7.28;;;3.95;;
26486;SDS011;14425;56.136;40.360;2024-01-15T13:00:39;13.98;;;5.43;;
26486;SDS011;14425;56.136;40.360;2024-01-15T13:03:04;9.50;;;4.90;;
26486;SDS011;14425;56.136;40.360;2024-01-15T13:05:31;12.45;;;5.95;;
26486;SDS011;14425;56.136;40.360;2024-01-15T13:07:56;12.68;;;6.07;;
26486;SDS011;14425;56.136;40.360;2024-01-15T13:10:22;13.63;;;6.03;;
26486;SDS011;14425;56.136;40.360;2024-01-15T13:12:53;15.27;;;7.25;;
26486;SDS011;14425;56.136;40.360;2024-01-15T13:15:22;13.93;;;6.82;;
26486;SDS011;14425;56.136;40.360;2024-01-15T13:17:47;14.43;;;6.53;;
26486;SDS011;14425;56.136;40.360;2024-01-15T13:20:12;13.55;;;5.40;;
26486;SDS011;14425;56.136;40.360;2024-01-15T13:22:38;13.52;;;7.05;;
26486;SDS011;14425;56.136;40.360;2024-01-15T13:25:05;14.65;;;6.45;;
26486;SDS011;14425;56.136;40.360;2024-01-15T13:27:32;8.55;;;4.38;;
26486;SDS011;14425;56.136;40.360;2024-01-15T13:30:01;14.27;;;6.25;;
26486;SDS011;14425;56.136;40.360;2024-01-15T13:32:30;12.00;;;6.18;;
26486;SDS011;14425;56.136;40.360;2024-01-15T13:34:56;9.65;;;6.15;;
26486;SDS011;14425;56.136;40.360;2024-01-15T13:37:24;12.90;;;5.25;;
26486;SDS011;14425;56.136;40.360;2024-01-15T13:39:50;13.02;;;6.65;;
26486;SDS011;14425;56.136;40.360;2024-01-15T13:42:17;12.00;;;6.15;;
26486;SDS011;14425;56.136;40.360;2024-01-15T13:44:42;14.50;;;6.70;;
26486;SDS011;14425;56.136;40.360;2024-01-15T13:47:07;14.45;;;6.47;;
26486;SDS011;14425;56.136;40.360;2024-01-15T13:49:34;11.32;;;5.78;;
26486;SDS011;14425;56.136;40.360;2024-01-15T13:52:01;13.57;;;6.20;;
26486;SDS011;14425;56.136;40.360;2024-01-15T13:54:32;8.77;;;4.95;;
26486;SDS011;14425;56.136;40.360;2024-01-15T13:56:57;13.55;;;6.63;;
26486;SDS011;14425;56.136;40.360;2024-01-15T13:59:24;8.70;;;4.22;;
26486;SDS011;14425;56.136;40.360;2024-01-15T14:01:49;11.43;;;5.68;;
26486;SDS011;14425;56.136;40.360;2024-01-15T14:04:15;12.05;;;6.00;;
26486;SDS011;14425;56.136;40.360;2024-01-15T14:06:40;13.57;;;7.05;;
26486;SDS011;14425;56.136;40.360;2024-01-15T14:09:06;12.75;;;6.38;;
26486;SDS011;14425;56.136;40.360;2024-01-15T14:11:35;11.13;;;5.05;;
26486;SDS011;14425;56.136;40.360;2024-01-15T14:14:00;13.95;;;7.40;;
26486;SDS011;14425;56.136;40.360;2024-01-15T14:16:25;12.68;;;5.97;;
26486;SDS011;14425;56.136;40.360;2024-01-15T14:18:51;12.43;;;6.22;;
26486;SDS011;14425;56.136;40.360;2024-01-15T14:21:16;13.98;;;5.38;;
26486;SDS011;14425;56.136;40.360;2024-01-15T14:23:41;11.60;;;5.70;;
26486;SDS011;14425;56.136;40.360;2024-01-15T14:26:07;13.70;;;6.43;;
26486;SDS011;14425;56.136;40.360;2024-01-15T14:28:33;11.98;;;5.10;;
26486;SDS011;14425;56.136;40.360;2024-01-15T14:30:58;14.63;;;6.13;;